ASX668 FNLU-FKKD
Flight info
| Callsign | ASX668 |
|---|---|
| Flight time | 1h 51m |
| Altitude | 24000 |
| Route | EPLAT R526 EXITO/N0473F430 UR526 LIKAD UY339 MESIN UG861 ARASI |
| Aircraft | C700/M-SBDGRWXY/LB2 |
Departure
| Time | 2026-04-17 06:31 |
|---|---|
| Airport | Quatro de Fevereiro International Airport (FNLU) |
Arrival
| Time | 2026-04-17 08:22 |
|---|---|
| Airport | Douala International Airport (FKKD) |
| Time | Latitude | Longitude | Altitude | Speed | Heading |
|---|---|---|---|---|---|
| 2026-04-17 06:18 | -8.84925 | 13.23621 | 234 ft | 0 kts | 307° |
| 2026-04-17 06:29 | -8.84903 | 13.23582 | 235 ft | 12 kts | 273° |
| 2026-04-17 06:29 | -8.84984 | 13.23515 | 235 ft | 22 kts | 166° |
| 2026-04-17 06:29 | -8.85135 | 13.23586 | 235 ft | 24 kts | 145° |
| 2026-04-17 06:29 | -8.85251 | 13.23683 | 234 ft | 16 kts | 139° |
| 2026-04-17 06:30 | -8.85328 | 13.23752 | 234 ft | 15 kts | 136° |
| 2026-04-17 06:30 | -8.85411 | 13.23806 | 234 ft | 13 kts | 210° |
| 2026-04-17 06:30 | -8.85491 | 13.23721 | 235 ft | 31 kts | 227° |
| 2026-04-17 06:30 | -8.85874 | 13.23315 | 236 ft | 128 kts | 227° |
| 2026-04-17 06:31 | -8.86665 | 13.22446 | 430 ft | 198 kts | 226° |
| 2026-04-17 06:31 | -8.87644 | 13.21317 | 1066 ft | 218 kts | 227° |
| 2026-04-17 06:31 | -8.88651 | 13.20125 | 1701 ft | 234 kts | 227° |
| 2026-04-17 06:31 | -8.89720 | 13.18854 | 2341 ft | 235 kts | 229° |
| 2026-04-17 06:32 | -8.90359 | 13.17358 | 2941 ft | 235 kts | 262° |
| 2026-04-17 06:32 | -8.90055 | 13.15705 | 3552 ft | 254 kts | 296° |
| 2026-04-17 06:32 | -8.88895 | 13.14407 | 4147 ft | 255 kts | 328° |
| 2026-04-17 06:32 | -8.87269 | 13.13685 | 4777 ft | 254 kts | 342° |
| 2026-04-17 06:33 | -8.85540 | 13.13122 | 5406 ft | 274 kts | 345° |
| 2026-04-17 06:33 | -8.83674 | 13.12741 | 6044 ft | 276 kts | 354° |
| 2026-04-17 06:33 | -8.81736 | 13.12514 | 6656 ft | 279 kts | 355° |
| 2026-04-17 06:33 | -8.79776 | 13.12316 | 7260 ft | 285 kts | 356° |
| 2026-04-17 06:34 | -8.77798 | 13.12126 | 7871 ft | 289 kts | 356° |
| 2026-04-17 06:34 | -8.75793 | 13.11935 | 8491 ft | 289 kts | 356° |
| 2026-04-17 06:34 | -8.73771 | 13.11742 | 9119 ft | 294 kts | 356° |
| 2026-04-17 06:34 | -8.71739 | 13.11548 | 9750 ft | 295 kts | 356° |
| 2026-04-17 06:35 | -8.69674 | 13.11350 | 10326 ft | 306 kts | 356° |
| 2026-04-17 06:35 | -8.67430 | 13.11141 | 10929 ft | 341 kts | 356° |
| 2026-04-17 06:35 | -8.64990 | 13.10921 | 11546 ft | 354 kts | 356° |
| 2026-04-17 06:35 | -8.62524 | 13.10702 | 12163 ft | 368 kts | 356° |
| 2026-04-17 06:36 | -8.59978 | 13.10479 | 12799 ft | 367 kts | 356° |
| 2026-04-17 06:36 | -8.57401 | 13.10255 | 13441 ft | 373 kts | 356° |
| 2026-04-17 06:36 | -8.54808 | 13.10035 | 14040 ft | 376 kts | 356° |
| 2026-04-17 06:36 | -8.52184 | 13.09728 | 14619 ft | 382 kts | 352° |
| 2026-04-17 06:37 | -8.49586 | 13.09125 | 15196 ft | 384 kts | 343° |
| 2026-04-17 06:37 | -8.47106 | 13.08106 | 15789 ft | 388 kts | 335° |
| 2026-04-17 06:37 | -8.44655 | 13.06902 | 16396 ft | 394 kts | 334° |
| 2026-04-17 06:37 | -8.42158 | 13.05766 | 17016 ft | 393 kts | 339° |
| 2026-04-17 06:38 | -8.39572 | 13.04808 | 17646 ft | 400 kts | 341° |
| 2026-04-17 06:38 | -8.36988 | 13.03852 | 18262 ft | 403 kts | 339° |
| 2026-04-17 06:38 | -8.34746 | 13.02919 | 18744 ft | 405 kts | 337° |
| 2026-04-17 06:38 | -8.32186 | 13.01821 | 19299 ft | 408 kts | 338° |
| 2026-04-17 06:39 | -8.29614 | 13.00790 | 19855 ft | 413 kts | 339° |
| 2026-04-17 06:39 | -8.26903 | 12.99739 | 20445 ft | 417 kts | 339° |
| 2026-04-17 06:39 | -8.24204 | 12.98652 | 20978 ft | 419 kts | 338° |
| 2026-04-17 06:39 | -8.21484 | 12.97530 | 21462 ft | 424 kts | 338° |
| 2026-04-17 06:40 | -8.18673 | 12.96395 | 21751 ft | 448 kts | 338° |
| 2026-04-17 06:40 | -8.15742 | 12.95230 | 22008 ft | 450 kts | 339° |
| 2026-04-17 06:40 | -8.12821 | 12.94057 | 22261 ft | 456 kts | 338° |
| 2026-04-17 06:40 | -8.09863 | 12.92854 | 22521 ft | 457 kts | 338° |
| 2026-04-17 06:41 | -8.06910 | 12.91664 | 22779 ft | 458 kts | 338° |
| 2026-04-17 06:41 | -8.03934 | 12.90473 | 23041 ft | 462 kts | 338° |
| 2026-04-17 06:41 | -8.00986 | 12.89287 | 23294 ft | 462 kts | 338° |
| 2026-04-17 06:41 | -7.98001 | 12.88081 | 23539 ft | 462 kts | 338° |
| 2026-04-17 06:42 | -7.95000 | 12.86874 | 23764 ft | 467 kts | 338° |
| 2026-04-17 06:42 | -7.91970 | 12.85657 | 23881 ft | 469 kts | 338° |
| 2026-04-17 06:42 | -7.88954 | 12.84443 | 23882 ft | 466 kts | 338° |
| 2026-04-17 06:42 | -7.85947 | 12.83232 | 23882 ft | 465 kts | 338° |
| 2026-04-17 06:43 | -7.82934 | 12.82022 | 23880 ft | 467 kts | 338° |
| 2026-04-17 06:43 | -7.79913 | 12.80807 | 23882 ft | 466 kts | 338° |
| 2026-04-17 06:43 | -7.76910 | 12.79600 | 23878 ft | 465 kts | 338° |
| 2026-04-17 06:43 | -7.73892 | 12.78387 | 23878 ft | 466 kts | 338° |
| 2026-04-17 06:44 | -7.70869 | 12.77171 | 23880 ft | 467 kts | 338° |
| 2026-04-17 06:44 | -7.67854 | 12.75960 | 23879 ft | 466 kts | 338° |
| 2026-04-17 06:44 | -7.64840 | 12.74749 | 23878 ft | 465 kts | 338° |
| 2026-04-17 06:44 | -7.61833 | 12.73541 | 23879 ft | 464 kts | 338° |
| 2026-04-17 06:45 | -7.58874 | 12.72348 | 23879 ft | 465 kts | 338° |
| 2026-04-17 06:45 | -7.55875 | 12.71092 | 23879 ft | 467 kts | 337° |
| 2026-04-17 06:45 | -7.52877 | 12.69814 | 23879 ft | 467 kts | 338° |
| 2026-04-17 06:45 | -7.49885 | 12.68572 | 23880 ft | 464 kts | 338° |
| 2026-04-17 06:46 | -7.46891 | 12.67347 | 23882 ft | 466 kts | 338° |
| 2026-04-17 06:46 | -7.43888 | 12.66098 | 23880 ft | 467 kts | 338° |
| 2026-04-17 06:46 | -7.40903 | 12.64842 | 23880 ft | 463 kts | 338° |
| 2026-04-17 06:46 | -7.37918 | 12.63600 | 23879 ft | 466 kts | 338° |
| 2026-04-17 06:47 | -7.34907 | 12.62359 | 23882 ft | 467 kts | 338° |
| 2026-04-17 06:47 | -7.31918 | 12.61117 | 23877 ft | 465 kts | 338° |
| 2026-04-17 06:47 | -7.28924 | 12.59866 | 23882 ft | 467 kts | 338° |
| 2026-04-17 06:47 | -7.25919 | 12.58617 | 23879 ft | 466 kts | 338° |
| 2026-04-17 06:48 | -7.22932 | 12.57379 | 23879 ft | 465 kts | 338° |
| 2026-04-17 06:48 | -7.19940 | 12.56137 | 23875 ft | 465 kts | 338° |
| 2026-04-17 06:48 | -7.16947 | 12.54891 | 23877 ft | 466 kts | 338° |
| 2026-04-17 06:48 | -7.13948 | 12.53645 | 23877 ft | 467 kts | 338° |
| 2026-04-17 06:49 | -7.10950 | 12.52401 | 23876 ft | 466 kts | 338° |
| 2026-04-17 06:49 | -7.07941 | 12.51153 | 23881 ft | 466 kts | 338° |
| 2026-04-17 06:49 | -7.04946 | 12.49909 | 23883 ft | 466 kts | 338° |
| 2026-04-17 06:49 | -7.01948 | 12.48663 | 23880 ft | 466 kts | 338° |
| 2026-04-17 06:50 | -6.98954 | 12.47421 | 23881 ft | 466 kts | 338° |
| 2026-04-17 06:50 | -6.95957 | 12.46179 | 23883 ft | 466 kts | 338° |
| 2026-04-17 06:50 | -6.92957 | 12.44933 | 23881 ft | 465 kts | 338° |
| 2026-04-17 06:50 | -6.89976 | 12.43695 | 24107 ft | 463 kts | 338° |
| 2026-04-17 06:51 | -6.86960 | 12.42445 | 24440 ft | 472 kts | 338° |
| 2026-04-17 06:51 | -6.83928 | 12.41188 | 24772 ft | 471 kts | 338° |
| 2026-04-17 06:51 | -6.80886 | 12.39927 | 25107 ft | 476 kts | 338° |
| 2026-04-17 06:51 | -6.77819 | 12.38655 | 25450 ft | 478 kts | 338° |
| 2026-04-17 06:52 | -6.74741 | 12.37378 | 25794 ft | 479 kts | 338° |
| 2026-04-17 06:52 | -6.71656 | 12.36100 | 26144 ft | 481 kts | 338° |
| 2026-04-17 06:52 | -6.68549 | 12.34812 | 26499 ft | 486 kts | 338° |
| 2026-04-17 06:52 | -6.65414 | 12.33513 | 26860 ft | 488 kts | 338° |
| 2026-04-17 06:53 | -6.62269 | 12.32210 | 27219 ft | 490 kts | 338° |
| 2026-04-17 06:53 | -6.59109 | 12.30901 | 27591 ft | 493 kts | 338° |
| 2026-04-17 06:53 | -6.55917 | 12.29579 | 27965 ft | 498 kts | 338° |
| 2026-04-17 06:53 | -6.52753 | 12.28268 | 28339 ft | 498 kts | 338° |
| 2026-04-17 06:54 | -6.49505 | 12.26923 | 28723 ft | 501 kts | 338° |
| 2026-04-17 06:54 | -6.46271 | 12.25584 | 29112 ft | 504 kts | 338° |
| 2026-04-17 06:54 | -6.43018 | 12.24238 | 29505 ft | 507 kts | 338° |
| 2026-04-17 06:54 | -6.39798 | 12.22904 | 29898 ft | 507 kts | 338° |
| 2026-04-17 06:55 | -6.36537 | 12.21555 | 30240 ft | 507 kts | 338° |
| 2026-04-17 06:55 | -6.33274 | 12.20205 | 30576 ft | 505 kts | 337° |
| 2026-04-17 06:55 | -6.30028 | 12.18862 | 30923 ft | 505 kts | 337° |
| 2026-04-17 06:55 | -6.26781 | 12.17518 | 31272 ft | 504 kts | 337° |
| 2026-04-17 06:56 | -6.23536 | 12.16176 | 31622 ft | 503 kts | 337° |
| 2026-04-17 06:56 | -6.20297 | 12.14836 | 31981 ft | 502 kts | 337° |
| 2026-04-17 06:56 | -6.17067 | 12.13500 | 32258 ft | 503 kts | 337° |
| 2026-04-17 06:56 | -6.13828 | 12.12161 | 32502 ft | 504 kts | 337° |
| 2026-04-17 06:57 | -6.10584 | 12.10820 | 32740 ft | 504 kts | 337° |
| 2026-04-17 06:57 | -6.07339 | 12.09479 | 32986 ft | 504 kts | 337° |
| 2026-04-17 06:57 | -6.04093 | 12.08137 | 33236 ft | 504 kts | 337° |
| 2026-04-17 06:57 | -6.00842 | 12.06793 | 33488 ft | 504 kts | 337° |
| 2026-04-17 06:58 | -5.97600 | 12.05454 | 33734 ft | 503 kts | 337° |
| 2026-04-17 06:58 | -5.94370 | 12.04120 | 33979 ft | 503 kts | 337° |
| 2026-04-17 06:58 | -5.91131 | 12.02781 | 34197 ft | 502 kts | 336° |
| 2026-04-17 06:58 | -5.87945 | 12.01464 | 34415 ft | 501 kts | 336° |
| 2026-04-17 06:59 | -5.84719 | 12.00132 | 34637 ft | 501 kts | 336° |
| 2026-04-17 06:59 | -5.81506 | 11.98806 | 34864 ft | 500 kts | 336° |
| 2026-04-17 06:59 | -5.78284 | 11.97476 | 35088 ft | 499 kts | 336° |
| 2026-04-17 06:59 | -5.75077 | 11.96151 | 35312 ft | 498 kts | 336° |
| 2026-04-17 07:00 | -5.71873 | 11.94828 | 35545 ft | 497 kts | 336° |
| 2026-04-17 07:00 | -5.68673 | 11.93508 | 35782 ft | 497 kts | 336° |
| 2026-04-17 07:00 | -5.65480 | 11.92190 | 36016 ft | 496 kts | 336° |
| 2026-04-17 07:00 | -5.62288 | 11.90873 | 36249 ft | 495 kts | 336° |
| 2026-04-17 07:01 | -5.59099 | 11.89557 | 36495 ft | 494 kts | 336° |
| 2026-04-17 07:01 | -5.55924 | 11.88247 | 36735 ft | 494 kts | 336° |
| 2026-04-17 07:01 | -5.52743 | 11.86935 | 36979 ft | 493 kts | 336° |
| 2026-04-17 07:01 | -5.49570 | 11.85626 | 37242 ft | 492 kts | 336° |
| 2026-04-17 07:02 | -5.46412 | 11.84324 | 37486 ft | 491 kts | 336° |
| 2026-04-17 07:02 | -5.43253 | 11.83021 | 37741 ft | 490 kts | 336° |
| 2026-04-17 07:02 | -5.40095 | 11.81719 | 38001 ft | 490 kts | 336° |
| 2026-04-17 07:02 | -5.36949 | 11.80422 | 38261 ft | 489 kts | 336° |
| 2026-04-17 07:03 | -5.33843 | 11.79142 | 38519 ft | 488 kts | 336° |
| 2026-04-17 07:03 | -5.30702 | 11.77847 | 38747 ft | 487 kts | 336° |
| 2026-04-17 07:03 | -5.27570 | 11.76556 | 38969 ft | 486 kts | 336° |
| 2026-04-17 07:03 | -5.24437 | 11.75265 | 39193 ft | 486 kts | 336° |
| 2026-04-17 07:04 | -5.21317 | 11.73980 | 39419 ft | 485 kts | 336° |
| 2026-04-17 07:04 | -5.18202 | 11.72696 | 39649 ft | 484 kts | 336° |
| 2026-04-17 07:04 | -5.15088 | 11.71419 | 39889 ft | 483 kts | 337° |
| 2026-04-17 07:04 | -5.11867 | 11.70453 | 40118 ft | 484 kts | 347° |
| 2026-04-17 07:05 | -5.08533 | 11.70006 | 40362 ft | 484 kts | 355° |
| 2026-04-17 07:05 | -5.05175 | 11.69788 | 40608 ft | 483 kts | 355° |
| 2026-04-17 07:05 | -5.01823 | 11.69562 | 40854 ft | 482 kts | 355° |
| 2026-04-17 07:05 | -4.98474 | 11.69324 | 41103 ft | 481 kts | 355° |
| 2026-04-17 07:06 | -4.96258 | 11.69168 | 41273 ft | 481 kts | 355° |
| 2026-04-17 07:06 | -4.92923 | 11.68941 | 41522 ft | 480 kts | 355° |
| 2026-04-17 07:06 | -4.89594 | 11.68717 | 41778 ft | 479 kts | 355° |
| 2026-04-17 07:06 | -4.86274 | 11.68488 | 42039 ft | 478 kts | 355° |
| 2026-04-17 07:07 | -4.82960 | 11.68258 | 42300 ft | 477 kts | 355° |
| 2026-04-17 07:07 | -4.79657 | 11.68031 | 42564 ft | 475 kts | 355° |
| 2026-04-17 07:07 | -4.76362 | 11.67806 | 42827 ft | 474 kts | 355° |
| 2026-04-17 07:08 | -4.69718 | 11.67348 | 42843 ft | 482 kts | 355° |
| 2026-04-17 07:08 | -4.63035 | 11.66890 | 42842 ft | 487 kts | 355° |
| 2026-04-17 07:09 | -4.56251 | 11.66424 | 42852 ft | 490 kts | 355° |
| 2026-04-17 07:09 | -4.49416 | 11.65955 | 42858 ft | 489 kts | 355° |
| 2026-04-17 07:09 | -4.46058 | 11.65726 | 42863 ft | 478 kts | 355° |
| 2026-04-17 07:10 | -4.42754 | 11.65499 | 42853 ft | 474 kts | 355° |
| 2026-04-17 07:10 | -4.36120 | 11.65042 | 42846 ft | 480 kts | 355° |
| 2026-04-17 07:11 | -4.29473 | 11.64587 | 42849 ft | 477 kts | 355° |
| 2026-04-17 07:11 | -4.22855 | 11.64134 | 42852 ft | 475 kts | 355° |
| 2026-04-17 07:12 | -4.16278 | 11.63683 | 42854 ft | 479 kts | 355° |
| 2026-04-17 07:12 | -4.09607 | 11.63227 | 42865 ft | 479 kts | 355° |
| 2026-04-17 07:13 | -4.02980 | 11.62772 | 42869 ft | 476 kts | 355° |
| 2026-04-17 07:13 | -3.96380 | 11.62321 | 42865 ft | 477 kts | 355° |
| 2026-04-17 07:14 | -3.89729 | 11.61865 | 42881 ft | 480 kts | 355° |
| 2026-04-17 07:14 | -3.83075 | 11.61410 | 42877 ft | 477 kts | 355° |
| 2026-04-17 07:15 | -3.76467 | 11.60958 | 42876 ft | 475 kts | 355° |
| 2026-04-17 07:15 | -3.69848 | 11.60505 | 42888 ft | 479 kts | 355° |
| 2026-04-17 07:16 | -3.63238 | 11.59713 | 42897 ft | 477 kts | 345° |
| 2026-04-17 07:16 | -3.56807 | 11.58129 | 42901 ft | 475 kts | 345° |
| 2026-04-17 07:17 | -3.50395 | 11.56580 | 42909 ft | 473 kts | 345° |
| 2026-04-17 07:17 | -3.40768 | 11.54230 | 42909 ft | 479 kts | 345° |
| 2026-04-17 07:18 | -3.34292 | 11.52656 | 42911 ft | 477 kts | 345° |
| 2026-04-17 07:18 | -3.27854 | 11.51088 | 42921 ft | 475 kts | 345° |
| 2026-04-17 07:19 | -3.21473 | 11.49536 | 42911 ft | 474 kts | 345° |
| 2026-04-17 07:19 | -3.15026 | 11.47967 | 42907 ft | 473 kts | 345° |
| 2026-04-17 07:20 | -3.08646 | 11.46415 | 42913 ft | 476 kts | 345° |
| 2026-04-17 07:20 | -3.02192 | 11.44845 | 42920 ft | 478 kts | 345° |
| 2026-04-17 07:21 | -2.95747 | 11.43278 | 42922 ft | 476 kts | 345° |
| 2026-04-17 07:21 | -2.89320 | 11.41715 | 42920 ft | 474 kts | 345° |
| 2026-04-17 07:22 | -2.82924 | 11.40160 | 42913 ft | 473 kts | 345° |
| 2026-04-17 07:22 | -2.76496 | 11.38596 | 42922 ft | 477 kts | 345° |
| 2026-04-17 07:23 | -2.70047 | 11.37029 | 42918 ft | 475 kts | 345° |
| 2026-04-17 07:23 | -2.63644 | 11.35473 | 42924 ft | 473 kts | 345° |
| 2026-04-17 07:24 | -2.57255 | 11.33919 | 42909 ft | 473 kts | 345° |
| 2026-04-17 07:24 | -2.50818 | 11.32355 | 42916 ft | 477 kts | 345° |
| 2026-04-17 07:25 | -2.44394 | 11.30795 | 42913 ft | 474 kts | 345° |
| 2026-04-17 07:25 | -2.38004 | 11.29241 | 42909 ft | 472 kts | 345° |
| 2026-04-17 07:26 | -2.31611 | 11.27688 | 42915 ft | 475 kts | 345° |
| 2026-04-17 07:26 | -2.25166 | 11.26123 | 42915 ft | 476 kts | 345° |
| 2026-04-17 07:27 | -2.18738 | 11.24562 | 42915 ft | 474 kts | 345° |
| 2026-04-17 07:27 | -2.12375 | 11.23016 | 42909 ft | 473 kts | 345° |
| 2026-04-17 07:28 | -2.05982 | 11.21463 | 42910 ft | 474 kts | 345° |
| 2026-04-17 07:28 | -1.99535 | 11.19897 | 42921 ft | 478 kts | 345° |
| 2026-04-17 07:29 | -1.93084 | 11.18332 | 42922 ft | 475 kts | 345° |
| 2026-04-17 07:29 | -1.86665 | 11.16772 | 42916 ft | 474 kts | 345° |
| 2026-04-17 07:30 | -1.80264 | 11.15219 | 42911 ft | 474 kts | 345° |
| 2026-04-17 07:30 | -1.73816 | 11.13653 | 42917 ft | 478 kts | 345° |
| 2026-04-17 07:31 | -1.67364 | 11.12088 | 42920 ft | 476 kts | 345° |
| 2026-04-17 07:31 | -1.60927 | 11.10524 | 42920 ft | 475 kts | 345° |
| 2026-04-17 07:32 | -1.54559 | 11.08979 | 42921 ft | 474 kts | 345° |
| 2026-04-17 07:32 | -1.48144 | 11.07422 | 42919 ft | 476 kts | 345° |
| 2026-04-17 07:33 | -1.41685 | 11.05854 | 42924 ft | 478 kts | 345° |
| 2026-04-17 07:33 | -1.35226 | 11.04287 | 42927 ft | 476 kts | 345° |
| 2026-04-17 07:34 | -1.28795 | 11.02726 | 42927 ft | 475 kts | 345° |
| 2026-04-17 07:34 | -1.22381 | 11.01170 | 42928 ft | 475 kts | 345° |
| 2026-04-17 07:35 | -1.15941 | 10.99607 | 42928 ft | 478 kts | 345° |
| 2026-04-17 07:35 | -1.09498 | 10.98044 | 42930 ft | 479 kts | 345° |
| 2026-04-17 07:36 | -1.03039 | 10.96477 | 42924 ft | 477 kts | 345° |
| 2026-04-17 07:36 | -0.96564 | 10.94906 | 42926 ft | 475 kts | 345° |
| 2026-04-17 07:37 | -0.90146 | 10.93349 | 42922 ft | 475 kts | 345° |
| 2026-04-17 07:37 | -0.83698 | 10.91785 | 42932 ft | 478 kts | 345° |
| 2026-04-17 07:38 | -0.77263 | 10.90224 | 42917 ft | 480 kts | 345° |
| 2026-04-17 07:38 | -0.70778 | 10.88651 | 42919 ft | 478 kts | 345° |
| 2026-04-17 07:39 | -0.64328 | 10.87085 | 42920 ft | 476 kts | 345° |
| 2026-04-17 07:39 | -0.57890 | 10.85522 | 42912 ft | 477 kts | 345° |
| 2026-04-17 07:40 | -0.51403 | 10.83947 | 42924 ft | 481 kts | 345° |
| 2026-04-17 07:40 | -0.44899 | 10.82369 | 42915 ft | 479 kts | 345° |
| 2026-04-17 07:41 | -0.38428 | 10.80797 | 42921 ft | 477 kts | 345° |
| 2026-04-17 07:41 | -0.31975 | 10.79231 | 42905 ft | 478 kts | 345° |
| 2026-04-17 07:42 | -0.25478 | 10.77654 | 42905 ft | 482 kts | 345° |
| 2026-04-17 07:42 | -0.18976 | 10.76076 | 42910 ft | 480 kts | 345° |
| 2026-04-17 07:43 | -0.12487 | 10.74501 | 42909 ft | 479 kts | 345° |
| 2026-04-17 07:43 | -0.06051 | 10.72938 | 42911 ft | 479 kts | 345° |
| 2026-04-17 07:44 | 0.00417 | 10.71368 | 42909 ft | 478 kts | 345° |
| 2026-04-17 07:44 | 0.06883 | 10.69795 | 42911 ft | 479 kts | 345° |
| 2026-04-17 07:45 | 0.13382 | 10.68216 | 42917 ft | 482 kts | 345° |
| 2026-04-17 07:45 | 0.19899 | 10.66633 | 42922 ft | 481 kts | 345° |
| 2026-04-17 07:46 | 0.26409 | 10.65050 | 42926 ft | 481 kts | 345° |
| 2026-04-17 07:46 | 0.32906 | 10.63471 | 42940 ft | 481 kts | 345° |
| 2026-04-17 07:47 | 0.39413 | 10.61890 | 42929 ft | 480 kts | 345° |
| 2026-04-17 07:47 | 0.45900 | 10.60313 | 42932 ft | 480 kts | 345° |
| 2026-04-17 07:48 | 0.52385 | 10.58737 | 42940 ft | 479 kts | 345° |
| 2026-04-17 07:48 | 0.58818 | 10.57175 | 42933 ft | 479 kts | 345° |
| 2026-04-17 07:49 | 0.65290 | 10.55603 | 42945 ft | 478 kts | 345° |
| 2026-04-17 07:49 | 0.71758 | 10.54032 | 42938 ft | 478 kts | 345° |
| 2026-04-17 07:50 | 0.78222 | 10.52462 | 42939 ft | 478 kts | 345° |
| 2026-04-17 07:50 | 0.84722 | 10.50883 | 42945 ft | 482 kts | 345° |
| 2026-04-17 07:51 | 0.91239 | 10.49300 | 42945 ft | 481 kts | 345° |
| 2026-04-17 07:51 | 0.97741 | 10.47723 | 42950 ft | 480 kts | 345° |
| 2026-04-17 07:52 | 1.04180 | 10.46160 | 42948 ft | 478 kts | 345° |
| 2026-04-17 07:52 | 1.10650 | 10.44590 | 42951 ft | 478 kts | 345° |
| 2026-04-17 07:53 | 1.17145 | 10.43013 | 42947 ft | 483 kts | 345° |
| 2026-04-17 07:53 | 1.23675 | 10.41429 | 42948 ft | 482 kts | 345° |
| 2026-04-17 07:54 | 1.29088 | 10.40115 | 42947 ft | 480 kts | 345° |
| 2026-04-17 07:54 | 1.35574 | 10.38540 | 42940 ft | 479 kts | 345° |
| 2026-04-17 07:55 | 1.42039 | 10.36971 | 42938 ft | 478 kts | 345° |
| 2026-04-17 07:55 | 1.48498 | 10.35403 | 42945 ft | 478 kts | 345° |
| 2026-04-17 07:56 | 1.54969 | 10.33832 | 42947 ft | 479 kts | 345° |
| 2026-04-17 07:56 | 1.61449 | 10.32259 | 42937 ft | 479 kts | 345° |
| 2026-04-17 07:57 | 1.67928 | 10.30685 | 42942 ft | 479 kts | 345° |
| 2026-04-17 07:57 | 1.74405 | 10.29112 | 42936 ft | 479 kts | 345° |
| 2026-04-17 07:58 | 1.80853 | 10.27547 | 42938 ft | 480 kts | 345° |
| 2026-04-17 07:58 | 1.87334 | 10.25942 | 42936 ft | 480 kts | 344° |
| 2026-04-17 07:59 | 1.90581 | 10.25135 | 42455 ft | 479 kts | 344° |
| 2026-04-17 07:59 | 1.93774 | 10.24351 | 41824 ft | 467 kts | 345° |
| 2026-04-17 07:59 | 1.96908 | 10.23581 | 41210 ft | 462 kts | 344° |
| 2026-04-17 07:59 | 2.00050 | 10.22800 | 40603 ft | 469 kts | 344° |
| 2026-04-17 08:00 | 2.03237 | 10.22009 | 39988 ft | 473 kts | 345° |
| 2026-04-17 08:00 | 2.06434 | 10.21221 | 39363 ft | 474 kts | 345° |
| 2026-04-17 08:00 | 2.09643 | 10.20431 | 38735 ft | 475 kts | 345° |
| 2026-04-17 08:00 | 2.12843 | 10.19639 | 38059 ft | 476 kts | 345° |
| 2026-04-17 08:01 | 2.16070 | 10.18840 | 37432 ft | 475 kts | 345° |
| 2026-04-17 08:01 | 2.19281 | 10.18046 | 36817 ft | 477 kts | 345° |
| 2026-04-17 08:01 | 2.22519 | 10.17247 | 36180 ft | 481 kts | 346° |
| 2026-04-17 08:01 | 2.25772 | 10.16443 | 35546 ft | 481 kts | 346° |
| 2026-04-17 08:02 | 2.29019 | 10.15640 | 34905 ft | 480 kts | 346° |
| 2026-04-17 08:02 | 2.32253 | 10.14840 | 34276 ft | 480 kts | 347° |
| 2026-04-17 08:02 | 2.35466 | 10.14046 | 33612 ft | 483 kts | 347° |
| 2026-04-17 08:02 | 2.38737 | 10.13238 | 32963 ft | 485 kts | 347° |
| 2026-04-17 08:03 | 2.42017 | 10.12427 | 32315 ft | 486 kts | 347° |
| 2026-04-17 08:03 | 2.45292 | 10.11617 | 31679 ft | 485 kts | 347° |
| 2026-04-17 08:03 | 2.48608 | 10.10796 | 31030 ft | 484 kts | 347° |
| 2026-04-17 08:03 | 2.51829 | 10.10000 | 30400 ft | 483 kts | 347° |
| 2026-04-17 08:04 | 2.55090 | 10.09194 | 29728 ft | 482 kts | 347° |
| 2026-04-17 08:04 | 2.58325 | 10.08393 | 29080 ft | 476 kts | 347° |
| 2026-04-17 08:04 | 2.61526 | 10.07601 | 28453 ft | 471 kts | 347° |
| 2026-04-17 08:04 | 2.64697 | 10.06817 | 27832 ft | 469 kts | 347° |
| 2026-04-17 08:05 | 2.67852 | 10.06037 | 27217 ft | 464 kts | 347° |
| 2026-04-17 08:05 | 2.70965 | 10.05267 | 26614 ft | 458 kts | 347° |
| 2026-04-17 08:05 | 2.74044 | 10.04505 | 26008 ft | 454 kts | 347° |
| 2026-04-17 08:05 | 2.77099 | 10.03749 | 25410 ft | 451 kts | 347° |
| 2026-04-17 08:06 | 2.80137 | 10.02998 | 24817 ft | 447 kts | 347° |
| 2026-04-17 08:06 | 2.83147 | 10.02253 | 24225 ft | 443 kts | 347° |
| 2026-04-17 08:06 | 2.86124 | 10.01517 | 23644 ft | 439 kts | 347° |
| 2026-04-17 08:06 | 2.89079 | 10.00785 | 23023 ft | 434 kts | 347° |
| 2026-04-17 08:07 | 2.91990 | 10.00065 | 22447 ft | 427 kts | 347° |
| 2026-04-17 08:07 | 2.94867 | 9.99353 | 21883 ft | 425 kts | 347° |
| 2026-04-17 08:07 | 2.97734 | 9.98644 | 21322 ft | 422 kts | 347° |
| 2026-04-17 08:07 | 3.00568 | 9.97943 | 20771 ft | 417 kts | 347° |
| 2026-04-17 08:08 | 3.03371 | 9.97248 | 20220 ft | 413 kts | 347° |
| 2026-04-17 08:08 | 3.06153 | 9.96560 | 19689 ft | 410 kts | 347° |
| 2026-04-17 08:08 | 3.08909 | 9.95877 | 19145 ft | 406 kts | 347° |
| 2026-04-17 08:08 | 3.11651 | 9.95262 | 18614 ft | 401 kts | 353° |
| 2026-04-17 08:09 | 3.14380 | 9.95071 | 18086 ft | 396 kts | 359° |
| 2026-04-17 08:09 | 3.17116 | 9.94939 | 17537 ft | 392 kts | 358° |
| 2026-04-17 08:09 | 3.19830 | 9.94759 | 17036 ft | 388 kts | 358° |
| 2026-04-17 08:09 | 3.22524 | 9.94587 | 16524 ft | 388 kts | 359° |
| 2026-04-17 08:10 | 3.25213 | 9.94448 | 16016 ft | 385 kts | 359° |
| 2026-04-17 08:10 | 3.27884 | 9.94308 | 15511 ft | 382 kts | 359° |
| 2026-04-17 08:10 | 3.30532 | 9.94151 | 15007 ft | 380 kts | 359° |
| 2026-04-17 08:10 | 3.33162 | 9.93994 | 14511 ft | 378 kts | 359° |
| 2026-04-17 08:11 | 3.35776 | 9.93848 | 14016 ft | 375 kts | 359° |
| 2026-04-17 08:11 | 3.38367 | 9.93704 | 13509 ft | 367 kts | 359° |
| 2026-04-17 08:11 | 3.40824 | 9.93559 | 13049 ft | 340 kts | 359° |
| 2026-04-17 08:11 | 3.43095 | 9.93426 | 12649 ft | 315 kts | 360° |
| 2026-04-17 08:12 | 3.45221 | 9.93307 | 12267 ft | 299 kts | 0° |
| 2026-04-17 08:12 | 3.47300 | 9.93194 | 11882 ft | 300 kts | 0° |
| 2026-04-17 08:12 | 3.49398 | 9.93076 | 11477 ft | 302 kts | 0° |
| 2026-04-17 08:12 | 3.51497 | 9.92955 | 11086 ft | 302 kts | 0° |
| 2026-04-17 08:13 | 3.53586 | 9.92834 | 10688 ft | 299 kts | 0° |
| 2026-04-17 08:13 | 3.55652 | 9.92717 | 10295 ft | 296 kts | 0° |
| 2026-04-17 08:13 | 3.57701 | 9.92601 | 9912 ft | 294 kts | 0° |
| 2026-04-17 08:14 | 3.61760 | 9.92369 | 9116 ft | 289 kts | 360° |
| 2026-04-17 08:14 | 3.63767 | 9.92255 | 8738 ft | 289 kts | 360° |
| 2026-04-17 08:14 | 3.65771 | 9.92141 | 8353 ft | 288 kts | 359° |
| 2026-04-17 08:14 | 3.67772 | 9.92028 | 7977 ft | 288 kts | 359° |
| 2026-04-17 08:15 | 3.69776 | 9.91913 | 7592 ft | 287 kts | 359° |
| 2026-04-17 08:15 | 3.71762 | 9.91799 | 7216 ft | 285 kts | 359° |
| 2026-04-17 08:15 | 3.73710 | 9.91688 | 6852 ft | 283 kts | 359° |
| 2026-04-17 08:15 | 3.75674 | 9.91576 | 6483 ft | 282 kts | 359° |
| 2026-04-17 08:16 | 3.77630 | 9.91465 | 6101 ft | 281 kts | 358° |
| 2026-04-17 08:16 | 3.79578 | 9.91354 | 5725 ft | 280 kts | 358° |
| 2026-04-17 08:16 | 3.81477 | 9.91246 | 5364 ft | 263 kts | 358° |
| 2026-04-17 08:16 | 3.83222 | 9.91144 | 5112 ft | 240 kts | 358° |
| 2026-04-17 08:17 | 3.84888 | 9.91050 | 4859 ft | 240 kts | 358° |
| 2026-04-17 08:17 | 3.86569 | 9.90956 | 4558 ft | 243 kts | 358° |
| 2026-04-17 08:17 | 3.88264 | 9.90852 | 4233 ft | 245 kts | 355° |
| 2026-04-17 08:17 | 3.89915 | 9.90411 | 3905 ft | 247 kts | 335° |
| 2026-04-17 08:18 | 3.91305 | 9.89506 | 3619 ft | 230 kts | 319° |
| 2026-04-17 08:18 | 3.92308 | 9.88322 | 3317 ft | 218 kts | 302° |
| 2026-04-17 08:18 | 3.93016 | 9.87013 | 2972 ft | 212 kts | 296° |
| 2026-04-17 08:18 | 3.93643 | 9.85732 | 2671 ft | 195 kts | 296° |
| 2026-04-17 08:19 | 3.94238 | 9.84571 | 2428 ft | 182 kts | 296° |
| 2026-04-17 08:19 | 3.94797 | 9.83451 | 2207 ft | 178 kts | 296° |
| 2026-04-17 08:19 | 3.95350 | 9.82352 | 1979 ft | 175 kts | 296° |
| 2026-04-17 08:19 | 3.95872 | 9.81319 | 1775 ft | 161 kts | 296° |
| 2026-04-17 08:20 | 3.96363 | 9.80347 | 1569 ft | 152 kts | 296° |
| 2026-04-17 08:20 | 3.96829 | 9.79426 | 1377 ft | 148 kts | 296° |
| 2026-04-17 08:20 | 3.97288 | 9.78516 | 1194 ft | 144 kts | 296° |
| 2026-04-17 08:20 | 3.97732 | 9.77635 | 1004 ft | 140 kts | 296° |
| 2026-04-17 08:21 | 3.98169 | 9.76771 | 834 ft | 138 kts | 296° |
| 2026-04-17 08:21 | 3.98601 | 9.75914 | 678 ft | 137 kts | 296° |
| 2026-04-17 08:21 | 3.99027 | 9.75064 | 526 ft | 134 kts | 296° |
| 2026-04-17 08:21 | 3.99436 | 9.74240 | 335 ft | 132 kts | 296° |
| 2026-04-17 08:22 | 3.99861 | 9.73434 | 142 ft | 129 kts | 299° |
| 2026-04-17 08:22 | 4.00259 | 9.72650 | 33 ft | 117 kts | 296° |
| 2026-04-17 08:22 | 4.00593 | 9.72000 | 28 ft | 94 kts | 295° |
| 2026-04-17 08:22 | 4.00798 | 9.71583 | 30 ft | 40 kts | 297° |
| 2026-04-17 08:23 | 4.00911 | 9.71361 | 30 ft | 16 kts | 298° |
| 2026-04-17 08:23 | 4.00986 | 9.71341 | 31 ft | 14 kts | 31° |
| 2026-04-17 08:23 | 4.01060 | 9.71402 | 32 ft | 15 kts | 75° |
| 2026-04-17 08:23 | 4.01011 | 9.71510 | 31 ft | 21 kts | 117° |
| 2026-04-17 08:24 | 4.00930 | 9.71650 | 30 ft | 22 kts | 110° |
| 2026-04-17 08:24 | 4.01012 | 9.71763 | 29 ft | 23 kts | 28° |
| 2026-04-17 08:24 | 4.01129 | 9.71818 | 29 ft | 8 kts | 27° |
| 2026-04-17 08:24 | 4.01161 | 9.71800 | 29 ft | 6 kts | 295° |
| 2026-04-17 08:25 | 4.01164 | 9.71794 | 29 ft | 0 kts | 295° |